Time;durP1;ratioP1;P1;durP2;ratioP2;P2;SDS_P1;SDS_P2;PMS_P1;PMS_P2;Temp;Humidity;BMP_temperature;BMP_pressure;BME280_temperature;BME280_humidity;BME280_pressure;Samples;Min_cycle;Max_cycle;Signal;HPM_P1;HPM_P2
2022/06/15 00:01:45;;;;;;;3.87;3.00;;;;;;;;;;5005807;28;20211;-36
2022/06/15 00:04:13;;;;;;;3.43;2.40;;;;;;;;;;5009846;28;20217;-33
2022/06/15 00:06:41;;;;;;;2.93;2.60;;;;;;;;;;5011978;28;20232;-33
2022/06/15 00:09:09;;;;;;;4.27;2.77;;;;;;;;;;5012118;28;20220;-35
2022/06/15 00:11:39;;;;;;;4.37;2.70;;;;;;;;;;5001255;28;20206;-36
2022/06/15 00:14:07;;;;;;;3.67;2.40;;;;;;;;;;5007198;28;20268;-34
2022/06/15 00:16:34;;;;;;;6.70;2.77;;;;;;;;;;5008816;28;20251;-35
2022/06/15 00:19:02;;;;;;;4.20;3.00;;;;;;;;;;5003001;28;20221;-33
2022/06/15 00:21:31;;;;;;;3.23;2.93;;;;;;;;;;5012090;28;20218;-36
2022/06/15 00:23:58;;;;;;;4.17;2.90;;;;;;;;;;5011496;28;20224;-31
2022/06/15 00:26:26;;;;;;;3.37;2.60;;;;;;;;;;5009314;28;20236;-34
2022/06/15 00:28:53;;;;;;;2.93;2.33;;;;;;;;;;5005672;28;20486;-40
2022/06/15 00:31:21;;;;;;;3.47;2.83;;;;;;;;;;5009632;28;20202;-40
2022/06/15 00:33:48;;;;;;;2.87;2.63;;;;;;;;;;5002987;28;20230;-36
2022/06/15 00:36:17;;;;;;;4.57;2.60;;;;;;;;;;5010695;28;20320;-34
2022/06/15 00:38:47;;;;;;;4.77;2.40;;;;;;;;;;5011506;28;20215;-36
2022/06/15 00:41:15;;;;;;;3.43;2.77;;;;;;;;;;4995011;28;20218;-34
2022/06/15 00:43:43;;;;;;;5.33;2.90;;;;;;;;;;5001367;28;20209;-36
2022/06/15 00:46:15;;;;;;;3.27;2.50;;;;;;;;;;5014451;28;20229;-34
2022/06/15 00:48:43;;;;;;;3.80;2.50;;;;;;;;;;5013039;28;20208;-31
2022/06/15 00:51:10;;;;;;;2.47;2.27;;;;;;;;;;5014771;28;20209;-35
2022/06/15 00:53:37;;;;;;;4.53;2.57;;;;;;;;;;5011570;28;20213;-35
2022/06/15 00:56:08;;;;;;;4.10;2.70;;;;;;;;;;5009698;28;20253;-34
2022/06/15 00:58:36;;;;;;;6.03;2.90;;;;;;;;;;5004170;28;20297;-37
2022/06/15 01:01:03;;;;;;;3.43;2.67;;;;;;;;;;5004050;28;20233;-37
2022/06/15 01:03:30;;;;;;;3.83;2.97;;;;;;;;;;4995861;28;20221;-38
2022/06/15 01:06:00;;;;;;;5.77;2.70;;;;;;;;;;4994848;28;20235;-35
2022/06/15 01:08:30;;;;;;;4.03;3.07;;;;;;;;;;5010937;28;20217;-37
2022/06/15 01:11:11;;;;;;;3.57;2.67;;;;;;;;;;5008789;28;20204;-35
2022/06/15 01:13:50;;;;;;;4.10;2.67;;;;;;;;;;5006892;28;20236;-34
2022/06/15 01:16:21;;;;;;;4.70;2.70;;;;;;;;;;5010438;28;20310;-32
2022/06/15 01:18:53;;;;;;;5.17;2.83;;;;;;;;;;5002358;28;20217;-32
2022/06/15 01:21:23;;;;;;;3.30;3.00;;;;;;;;;;5003670;28;20209;-35
2022/06/15 01:24:07;;;;;;;3.13;2.70;;;;;;;;;;4991310;28;20227;-36
2022/06/15 01:27:05;;;;;;;4.40;3.10;;;;;;;;;;4998842;28;20233;-34
2022/06/15 01:29:43;;;;;;;3.33;2.80;;;;;;;;;;5010209;28;20305;-37
2022/06/15 01:32:15;;;;;;;4.03;2.70;;;;;;;;;;5002933;28;20208;-38
2022/06/15 01:34:47;;;;;;;3.03;2.73;;;;;;;;;;5001367;28;20235;-32
2022/06/15 01:37:18;;;;;;;2.80;2.60;;;;;;;;;;5004923;28;20291;-33
2022/06/15 01:39:48;;;;;;;5.63;2.77;;;;;;;;;;5003889;28;20207;-34
2022/06/15 01:42:18;;;;;;;4.40;2.77;;;;;;;;;;5006733;28;20212;-35
2022/06/15 01:44:48;;;;;;;3.57;2.50;;;;;;;;;;5010318;28;20212;-40
2022/06/15 01:47:21;;;;;;;3.37;2.50;;;;;;;;;;5006494;28;20232;-36
2022/06/15 01:49:52;;;;;;;3.53;2.40;;;;;;;;;;5006116;28;20212;-36
2022/06/15 01:52:21;;;;;;;3.17;2.60;;;;;;;;;;4990594;28;20205;-37
2022/06/15 01:54:50;;;;;;;4.67;2.97;;;;;;;;;;4989949;28;20252;-39
2022/06/15 01:57:18;;;;;;;3.70;2.90;;;;;;;;;;4993513;28;20226;-31
2022/06/15 01:59:47;;;;;;;2.60;2.40;;;;;;;;;;5000054;28;20250;-38
2022/06/15 02:02:19;;;;;;;3.67;2.63;;;;;;;;;;5254446;22;20238;-36
2022/06/15 02:04:53;;;;;;;2.60;2.40;;;;;;;;;;4999143;28;20213;-35
2022/06/15 02:07:27;;;;;;;5.67;2.23;;;;;;;;;;5015578;28;20235;-38
2022/06/15 02:09:56;;;;;;;3.37;2.20;;;;;;;;;;5029914;28;20219;-36
2022/06/15 02:12:28;;;;;;;3.00;2.47;;;;;;;;;;5022288;28;20210;-36
2022/06/15 02:14:59;;;;;;;2.83;2.53;;;;;;;;;;5018617;28;20368;-39
2022/06/15 02:17:30;;;;;;;2.53;2.30;;;;;;;;;;5028853;28;20230;-39
2022/06/15 02:19:59;;;;;;;2.87;2.17;;;;;;;;;;5017611;28;20200;-33
2022/06/15 02:22:28;;;;;;;3.83;2.20;;;;;;;;;;5010104;28;20620;-34
2022/06/15 02:24:56;;;;;;;2.60;2.40;;;;;;;;;;5011074;28;20219;-37
2022/06/15 02:27:26;;;;;;;3.73;2.70;;;;;;;;;;5020513;28;20231;-37
2022/06/15 02:29:55;;;;;;;6.83;2.60;;;;;;;;;;5022352;28;20308;-40
2022/06/15 02:32:25;;;;;;;3.93;2.43;;;;;;;;;;5015800;28;20219;-38
2022/06/15 02:34:53;;;;;;;8.37;2.83;;;;;;;;;;5020553;28;20224;-37
2022/06/15 02:37:21;;;;;;;6.33;3.50;;;;;;;;;;5024311;28;20250;-37
2022/06/15 02:39:48;;;;;;;4.53;3.50;;;;;;;;;;5029439;28;20660;-35
2022/06/15 02:42:28;;;;;;;5.67;3.57;;;;;;;;;;5025006;28;20217;-36
2022/06/15 02:44:56;;;;;;;5.30;3.50;;;;;;;;;;5013914;28;20203;-36
2022/06/15 02:47:24;;;;;;;4.40;3.23;;;;;;;;;;5020220;28;20232;-36
2022/06/15 02:49:53;;;;;;;3.90;2.57;;;;;;;;;;5010545;28;20209;-37
2022/06/15 02:52:22;;;;;;;3.47;3.10;;;;;;;;;;5009447;28;20681;-34
2022/06/15 02:54:50;;;;;;;4.07;2.33;;;;;;;;;;5009352;28;20208;-36
2022/06/15 02:57:18;;;;;;;5.73;3.13;;;;;;;;;;5017067;28;20223;-34
2022/06/15 02:59:46;;;;;;;8.73;2.73;;;;;;;;;;5016714;28;20212;-35
2022/06/15 03:02:14;;;;;;;3.60;2.60;;;;;;;;;;5020209;28;20220;-37
2022/06/15 03:04:41;;;;;;;3.83;2.60;;;;;;;;;;5019368;28;20231;-35
2022/06/15 03:07:11;;;;;;;3.70;2.53;;;;;;;;;;5017037;28;20223;-36
2022/06/15 03:09:38;;;;;;;3.70;2.80;;;;;;;;;;5029344;28;20629;-36
2022/06/15 03:12:06;;;;;;;4.53;2.60;;;;;;;;;;5019077;28;20235;-37
2022/06/15 03:14:33;;;;;;;4.03;2.90;;;;;;;;;;5011773;28;20216;-35
2022/06/15 03:17:00;;;;;;;3.80;2.50;;;;;;;;;;5013714;28;20232;-35
2022/06/15 03:19:27;;;;;;;3.80;2.83;;;;;;;;;;5019371;28;20203;-33
2022/06/15 03:21:54;;;;;;;6.30;2.90;;;;;;;;;;5020633;28;20203;-38
2022/06/15 03:24:23;;;;;;;2.77;2.57;;;;;;;;;;5012926;28;20211;-33
2022/06/15 03:26:50;;;;;;;4.23;2.67;;;;;;;;;;5025679;28;20223;-39
2022/06/15 03:29:17;;;;;;;2.53;2.33;;;;;;;;;;5032703;28;20209;-36
2022/06/15 03:31:44;;;;;;;4.33;2.60;;;;;;;;;;5017919;28;20206;-38
2022/06/15 03:34:11;;;;;;;4.40;2.40;;;;;;;;;;5031438;28;20216;-35
2022/06/15 03:36:38;;;;;;;2.50;2.30;;;;;;;;;;5026052;28;20219;-34
2022/06/15 03:39:05;;;;;;;2.97;2.43;;;;;;;;;;5015267;28;20210;-36
2022/06/15 03:41:34;;;;;;;2.97;2.50;;;;;;;;;;5030263;28;20208;-35
2022/06/15 03:44:01;;;;;;;4.57;2.47;;;;;;;;;;5019367;28;20203;-37
2022/06/15 03:46:29;;;;;;;4.17;2.80;;;;;;;;;;5033736;28;20583;-38
2022/06/15 03:48:56;;;;;;;3.80;2.40;;;;;;;;;;5032404;28;20211;-36
2022/06/15 03:51:23;;;;;;;4.93;3.33;;;;;;;;;;5027726;28;20195;-38
2022/06/15 03:53:50;;;;;;;2.43;2.23;;;;;;;;;;5015189;28;20239;-37
2022/06/15 03:56:17;;;;;;;3.53;2.47;;;;;;;;;;5030623;28;20230;-32
2022/06/15 03:58:46;;;;;;;3.07;2.80;;;;;;;;;;5014929;28;20215;-37
2022/06/15 04:01:13;;;;;;;4.33;2.80;;;;;;;;;;5014926;28;20215;-33
2022/06/15 04:03:40;;;;;;;2.87;2.50;;;;;;;;;;5037457;28;20219;-38
2022/06/15 04:06:08;;;;;;;4.00;2.70;;;;;;;;;;5026543;28;20421;-38
2022/06/15 04:08:42;;;;;;;4.43;2.70;;;;;;;;;;5017832;28;20229;-36
2022/06/15 04:11:10;;;;;;;3.67;2.80;;;;;;;;;;5033818;28;20207;-33
2022/06/15 04:13:38;;;;;;;3.20;2.97;;;;;;;;;;5034075;28;20203;-36
2022/06/15 04:16:10;;;;;;;3.93;3.57;;;;;;;;;;5034328;28;20231;-37
2022/06/15 04:18:37;;;;;;;4.33;2.93;;;;;;;;;;5023950;28;20207;-34
2022/06/15 04:21:04;;;;;;;3.43;3.13;;;;;;;;;;5028367;28;20306;-39
2022/06/15 04:23:31;;;;;;;3.30;3.00;;;;;;;;;;5013676;28;20204;-38
2022/06/15 04:25:59;;;;;;;3.70;3.03;;;;;;;;;;5017780;28;20218;-37
2022/06/15 04:28:27;;;;;;;5.63;3.50;;;;;;;;;;5025258;28;20302;-33
2022/06/15 04:30:54;;;;;;;4.60;3.00;;;;;;;;;;5015653;28;20207;-34
2022/06/15 04:33:24;;;;;;;3.40;2.70;;;;;;;;;;5027937;28;20211;-39
2022/06/15 04:36:01;;;;;;;3.23;2.93;;;;;;;;;;5029307;28;20244;-36
2022/06/15 04:38:29;;;;;;;4.07;2.73;;;;;;;;;;5023629;28;20203;-36
2022/06/15 04:40:56;;;;;;;3.97;3.10;;;;;;;;;;5027161;28;20208;-35
2022/06/15 04:43:23;;;;;;;3.17;2.87;;;;;;;;;;5030777;28;20222;-39
2022/06/15 04:45:50;;;;;;;4.07;2.63;;;;;;;;;;5024568;28;20231;-36
2022/06/15 04:48:18;;;;;;;7.50;2.87;;;;;;;;;;5013879;28;20203;-37
2022/06/15 04:50:46;;;;;;;11.20;3.50;;;;;;;;;;5022719;28;20204;-36
2022/06/15 04:53:13;;;;;;;3.57;2.93;;;;;;;;;;5017498;28;20210;-34
2022/06/15 04:55:40;;;;;;;5.13;3.30;;;;;;;;;;5027869;28;20207;-35
2022/06/15 04:58:08;;;;;;;3.67;2.73;;;;;;;;;;5018001;28;20219;-36
2022/06/15 05:00:37;;;;;;;5.23;2.93;;;;;;;;;;5033005;28;20212;-35
2022/06/15 05:03:04;;;;;;;3.97;2.93;;;;;;;;;;5025209;28;20215;-36
2022/06/15 05:05:31;;;;;;;6.43;3.37;;;;;;;;;;5024563;28;20210;-40
2022/06/15 05:08:00;;;;;;;4.80;3.37;;;;;;;;;;5013453;28;20200;-37
2022/06/15 05:10:28;;;;;;;3.77;3.23;;;;;;;;;;5012985;28;20216;-35
2022/06/15 05:12:55;;;;;;;3.53;3.10;;;;;;;;;;5020998;28;20263;-36
2022/06/15 05:15:22;;;;;;;4.77;3.53;;;;;;;;;;5020388;28;20216;-36
2022/06/15 05:17:50;;;;;;;4.73;3.70;;;;;;;;;;5020455;28;20233;-37
2022/06/15 05:20:18;;;;;;;3.83;3.10;;;;;;;;;;5027267;28;20665;-36
2022/06/15 05:22:51;;;;;;;3.90;3.10;;;;;;;;;;5012311;28;20207;-37
2022/06/15 05:25:20;;;;;;;3.38;2.85;;;;;;;;;;5013694;28;20306;-39
2022/06/15 05:27:47;;;;;;;6.45;3.45;;;;;;;;;;5027879;28;20222;-37
2022/06/15 05:30:15;;;;;;;3.85;2.97;;;;;;;;;;5027984;28;20262;-38
2022/06/15 05:32:42;;;;;;;4.65;3.17;;;;;;;;;;5023556;28;20207;-39
2022/06/15 05:35:10;;;;;;;5.10;3.35;;;;;;;;;;5021538;28;20207;-39
2022/06/15 05:37:37;;;;;;;4.68;3.10;;;;;;;;;;5029854;28;20226;-34
2022/06/15 05:40:05;;;;;;;5.45;3.40;;;;;;;;;;5033516;28;20214;-39
2022/06/15 05:42:35;;;;;;;4.03;2.95;;;;;;;;;;5027640;28;20215;-37
2022/06/15 05:45:03;;;;;;;3.75;3.25;;;;;;;;;;5021338;28;20258;-34
2022/06/15 05:47:30;;;;;;;5.30;3.00;;;;;;;;;;5021747;28;20259;-38
2022/06/15 05:49:59;;;;;;;3.50;2.90;;;;;;;;;;5029689;28;20207;-36
2022/06/15 05:52:26;;;;;;;3.33;3.03;;;;;;;;;;5029353;28;20206;-36
2022/06/15 05:54:53;;;;;;;5.57;3.40;;;;;;;;;;5032876;28;20211;-35
2022/06/15 05:57:22;;;;;;;3.33;2.80;;;;;;;;;;5025353;28;20237;-36
2022/06/15 05:59:51;;;;;;;3.83;2.80;;;;;;;;;;5021472;28;20214;-36
2022/06/15 06:02:19;;;;;;;4.47;3.08;;;;;;;;;;5014303;28;20299;-33
2022/06/15 06:04:46;;;;;;;4.55;3.30;;;;;;;;;;5021641;28;20215;-37
2022/06/15 06:07:14;;;;;;;4.15;2.70;;;;;;;;;;5012178;28;20304;-36
2022/06/15 06:09:41;;;;;;;3.38;3.08;;;;;;;;;;5013299;28;20205;-39
2022/06/15 06:12:09;;;;;;;4.32;2.92;;;;;;;;;;5023282;28;20272;-38
2022/06/15 06:14:37;;;;;;;3.95;2.85;;;;;;;;;;5031674;28;20217;-39
2022/06/15 06:17:06;;;;;;;4.70;2.80;;;;;;;;;;5018346;28;20236;-37
2022/06/15 06:19:36;;;;;;;3.35;2.88;;;;;;;;;;5032201;28;20753;-39
2022/06/15 06:22:03;;;;;;;4.15;3.33;;;;;;;;;;5023714;28;20724;-38
2022/06/15 06:24:30;;;;;;;4.35;3.00;;;;;;;;;;5031147;28;20213;-35
2022/06/15 06:26:59;;;;;;;2.80;2.60;;;;;;;;;;5030472;28;20229;-38
2022/06/15 06:29:27;;;;;;;4.20;3.28;;;;;;;;;;5025192;28;20218;-39
2022/06/15 06:31:54;;;;;;;5.80;3.10;;;;;;;;;;5020558;28;20211;-36
2022/06/15 06:34:22;;;;;;;4.20;2.78;;;;;;;;;;5020285;28;20304;-34
2022/06/15 06:36:49;;;;;;;10.02;2.78;;;;;;;;;;5023787;28;20538;-39
2022/06/15 06:39:19;;;;;;;4.15;2.63;;;;;;;;;;5032887;28;20307;-34
2022/06/15 06:41:46;;;;;;;4.22;3.20;;;;;;;;;;5030523;28;20201;-36
2022/06/15 06:44:13;;;;;;;3.38;2.80;;;;;;;;;;5017932;28;20450;-37
2022/06/15 06:46:43;;;;;;;4.45;3.13;;;;;;;;;;5013799;28;20249;-38
2022/06/15 06:49:10;;;;;;;3.97;2.72;;;;;;;;;;5027207;28;20297;-40
2022/06/15 06:51:40;;;;;;;4.63;2.88;;;;;;;;;;5032044;28;20284;-40
2022/06/15 06:54:08;;;;;;;4.60;2.78;;;;;;;;;;5033051;28;20210;-37
2022/06/15 06:56:35;;;;;;;4.97;3.10;;;;;;;;;;5038699;28;20243;-37
2022/06/15 06:59:03;;;;;;;4.70;2.97;;;;;;;;;;5044195;28;20209;-37
2022/06/15 07:01:30;;;;;;;6.18;2.88;;;;;;;;;;5029396;28;20210;-37
2022/06/15 07:03:57;;;;;;;3.33;2.70;;;;;;;;;;5025879;28;20304;-37
2022/06/15 07:06:24;;;;;;;8.18;2.90;;;;;;;;;;5021209;28;20230;-34
2022/06/15 07:08:55;;;;;;;4.80;2.85;;;;;;;;;;5016288;28;20238;-35
2022/06/15 07:11:23;;;;;;;4.63;2.88;;;;;;;;;;5029143;28;20215;-36
2022/06/15 07:13:50;;;;;;;5.05;2.42;;;;;;;;;;5024083;28;20229;-38
2022/06/15 07:16:18;;;;;;;4.22;2.80;;;;;;;;;;5015684;28;20241;-35
2022/06/15 07:18:48;;;;;;;2.80;2.38;;;;;;;;;;5032367;28;20220;-34
2022/06/15 07:21:19;;;;;;;4.43;2.67;;;;;;;;;;5021301;28;20209;-38
2022/06/15 07:23:48;;;;;;;5.70;3.15;;;;;;;;;;5035364;28;20225;-35
2022/06/15 07:26:19;;;;;;;2.88;2.50;;;;;;;;;;5035289;28;20357;-36
2022/06/15 07:28:47;;;;;;;3.42;2.47;;;;;;;;;;5020654;28;20286;-37
2022/06/15 07:31:20;;;;;;;6.63;2.95;;;;;;;;;;5020780;28;20280;-37
2022/06/15 07:33:47;;;;;;;4.13;2.80;;;;;;;;;;5035162;28;20220;-36
2022/06/15 07:36:15;;;;;;;2.53;2.13;;;;;;;;;;5029500;28;20227;-36
2022/06/15 07:38:42;;;;;;;3.28;2.60;;;;;;;;;;5025478;28;20205;-39
2022/06/15 07:41:09;;;;;;;4.03;2.60;;;;;;;;;;5019014;28;20225;-38
2022/06/15 07:43:39;;;;;;;4.97;2.30;;;;;;;;;;5034970;28;20245;-38
2022/06/15 07:46:07;;;;;;;2.80;2.40;;;;;;;;;;5035617;28;20221;-35
2022/06/15 07:51:28;;;;;;;2.90;2.53;;;;;;;;;;5033314;28;20201;-35
2022/06/15 07:53:55;;;;;;;4.55;2.15;;;;;;;;;;5032440;28;20202;-37
2022/06/15 07:56:23;;;;;;;3.88;2.60;;;;;;;;;;5030281;28;20275;-38
2022/06/15 07:58:51;;;;;;;4.38;2.50;;;;;;;;;;5033530;28;20202;-37
2022/06/15 08:01:19;;;;;;;3.72;2.00;;;;;;;;;;5034614;28;20559;-38
2022/06/15 08:03:46;;;;;;;2.67;2.20;;;;;;;;;;5073150;22;20294;-91
2022/06/15 08:06:14;;;;;;;3.25;2.40;;;;;;;;;;5053732;28;20210;-92
2022/06/15 08:08:42;;;;;;;4.05;2.20;;;;;;;;;;5054384;28;20208;-92
2022/06/15 08:11:09;;;;;;;3.92;2.22;;;;;;;;;;5043352;28;20217;-91
2022/06/15 08:13:37;;;;;;;3.78;2.40;;;;;;;;;;5043420;28;20227;-92
2022/06/15 08:16:06;;;;;;;4.20;2.83;;;;;;;;;;5054184;28;20237;-91
2022/06/15 08:18:36;;;;;;;2.70;2.10;;;;;;;;;;5045669;28;20225;-92
2022/06/15 08:21:05;;;;;;;4.75;3.22;;;;;;;;;;5054648;28;20248;-92
2022/06/15 08:23:33;;;;;;;2.88;1.95;;;;;;;;;;5054317;28;20649;-92
2022/06/15 08:26:02;;;;;;;2.33;2.13;;;;;;;;;;5054023;28;20204;-93
2022/06/15 08:28:30;;;;;;;3.97;2.33;;;;;;;;;;5054090;28;20201;-92
2022/06/15 08:30:58;;;;;;;2.42;2.13;;;;;;;;;;5054352;28;20206;-91
2022/06/15 08:33:27;;;;;;;2.67;2.00;;;;;;;;;;5054067;28;20309;-92
2022/06/15 08:35:55;;;;;;;3.65;2.13;;;;;;;;;;5053795;28;20212;-92
2022/06/15 08:38:24;;;;;;;6.95;5.55;;;;;;;;;;5054199;28;20226;-93
2022/06/15 08:40:52;;;;;;;3.47;2.22;;;;;;;;;;5053980;28;20204;-91
2022/06/15 08:43:25;;;;;;;3.70;2.15;;;;;;;;;;5049065;28;20228;-91
2022/06/15 08:45:53;;;;;;;4.28;2.60;;;;;;;;;;5053928;28;20202;-91
2022/06/15 08:48:26;;;;;;;2.72;2.03;;;;;;;;;;5053724;28;20197;-91
2022/06/15 08:50:58;;;;;;;3.20;2.10;;;;;;;;;;5054039;28;20204;-92
2022/06/15 08:53:26;;;;;;;2.65;2.45;;;;;;;;;;5053804;28;20232;-91
2022/06/15 08:55:57;;;;;;;3.58;1.95;;;;;;;;;;5053200;28;20201;-91
2022/06/15 08:58:27;;;;;;;4.40;2.38;;;;;;;;;;5047509;28;20234;-91
2022/06/15 09:00:59;;;;;;;2.10;1.90;;;;;;;;;;5053162;28;20769;-90
2022/06/15 09:03:33;;;;;;;4.38;2.20;;;;;;;;;;5046277;28;20602;-90
2022/06/15 09:06:14;;;;;;;3.90;2.60;;;;;;;;;;5045445;28;20197;-90
2022/06/15 09:08:53;;;;;;;3.20;2.13;;;;;;;;;;5053777;28;20719;-91
2022/06/15 09:11:25;;;;;;;2.95;2.35;;;;;;;;;;5045247;28;20204;-90
2022/06/15 09:13:57;;;;;;;3.42;2.33;;;;;;;;;;5052707;28;20224;-91
2022/06/15 09:16:29;;;;;;;4.03;2.42;;;;;;;;;;5052205;28;20204;-92
2022/06/15 09:19:01;;;;;;;3.72;2.13;;;;;;;;;;5051155;28;20228;-90
2022/06/15 09:21:31;;;;;;;3.05;2.40;;;;;;;;;;5053173;28;20297;-92
2022/06/15 09:24:00;;;;;;;4.78;2.47;;;;;;;;;;5052915;28;20225;-91
2022/06/15 09:26:29;;;;;;;3.50;2.40;;;;;;;;;;5045187;28;20212;-91
2022/06/15 09:28:59;;;;;;;4.57;2.60;;;;;;;;;;5047389;28;20198;-91
2022/06/15 09:31:27;;;;;;;2.20;1.85;;;;;;;;;;5032394;28;20668;-91
2022/06/15 09:33:57;;;;;;;2.60;2.22;;;;;;;;;;5044254;28;20295;-91
2022/06/15 09:36:26;;;;;;;3.38;2.75;;;;;;;;;;5053077;28;20360;-91
2022/06/15 09:38:55;;;;;;;3.05;2.35;;;;;;;;;;5052622;28;20220;-92
2022/06/15 09:41:25;;;;;;;4.53;2.10;;;;;;;;;;5051248;28;20212;-91
2022/06/15 09:43:58;;;;;;;2.95;2.22;;;;;;;;;;5047817;28;20318;-91
2022/06/15 09:46:27;;;;;;;3.60;2.17;;;;;;;;;;5053478;28;20212;-91
2022/06/15 09:49:00;;;;;;;2.50;2.15;;;;;;;;;;5053064;28;20204;-91
2022/06/15 09:51:32;;;;;;;5.65;2.42;;;;;;;;;;5053089;28;20591;-90
2022/06/15 09:54:07;;;;;;;2.25;2.05;;;;;;;;;;5052773;28;20234;-92
2022/06/15 09:56:35;;;;;;;3.28;2.22;;;;;;;;;;5051253;28;20213;-92
2022/06/15 09:59:03;;;;;;;4.13;2.47;;;;;;;;;;5052615;28;20212;-91
2022/06/15 10:01:34;;;;;;;6.38;2.50;;;;;;;;;;5052830;28;20211;-92
2022/06/15 10:04:03;;;;;;;3.03;2.25;;;;;;;;;;5037171;28;20236;-93
2022/06/15 10:06:32;;;;;;;4.68;2.60;;;;;;;;;;5052917;28;20213;-92
2022/06/15 10:09:02;;;;;;;3.00;2.05;;;;;;;;;;5052828;28;20287;-91
2022/06/15 10:11:34;;;;;;;3.42;2.13;;;;;;;;;;5051722;28;20581;-92
2022/06/15 10:14:17;;;;;;;4.72;2.33;;;;;;;;;;5044527;28;20717;-92
2022/06/15 10:16:49;;;;;;;2.20;1.90;;;;;;;;;;5052735;28;20562;-90
2022/06/15 10:19:17;;;;;;;4.25;2.60;;;;;;;;;;5051322;28;20227;-91
2022/06/15 10:21:44;;;;;;;8.85;2.15;;;;;;;;;;5052120;28;20210;-92
2022/06/15 10:24:21;;;;;;;9.57;2.30;;;;;;;;;;5056319;28;20573;-92
2022/06/15 10:26:49;;;;;;;2.70;2.30;;;;;;;;;;5052382;28;20218;-91
2022/06/15 10:29:28;;;;;;;5.72;2.55;;;;;;;;;;5054412;28;20208;-92
2022/06/15 10:32:08;;;;;;;2.75;2.42;;;;;;;;;;5055741;28;20447;-91
2022/06/15 10:34:58;;;;;;;2.90;2.50;;;;;;;;;;5056758;28;20266;-95
2022/06/15 10:37:29;;;;;;;4.05;2.40;;;;;;;;;;5057901;28;20205;-92
2022/06/15 10:40:00;;;;;;;5.43;2.38;;;;;;;;;;5056764;28;20212;-92
2022/06/15 10:42:32;;;;;;;3.95;2.20;;;;;;;;;;5056346;28;20231;-91
2022/06/15 10:45:00;;;;;;;5.13;2.58;;;;;;;;;;5056416;28;20227;-90
2022/06/15 10:47:29;;;;;;;5.20;2.80;;;;;;;;;;5054892;28;20295;-90
2022/06/15 10:49:59;;;;;;;2.25;2.00;;;;;;;;;;5056405;28;20213;-91
2022/06/15 10:52:28;;;;;;;2.28;2.08;;;;;;;;;;5056036;28;20227;-91
2022/06/15 11:03:38;;;;;;;17.58;4.45;;;;;;;;;;5051328;28;20290;-91
2022/06/15 11:06:06;;;;;;;9.82;2.65;;;;;;;;;;5059702;28;20204;-90
2022/06/15 11:08:35;;;;;;;2.45;2.13;;;;;;;;;;5056306;28;20199;-90
2022/06/15 11:11:12;;;;;;;2.97;2.05;;;;;;;;;;5055582;28;20219;-91
2022/06/15 11:13:41;;;;;;;2.50;1.88;;;;;;;;;;5055554;28;20228;-91
2022/06/15 11:19:09;;;;;;;2.47;2.03;;;;;;;;;;5048149;28;20210;-91
2022/06/15 11:21:39;;;;;;;3.47;2.17;;;;;;;;;;5055545;28;20223;-90
2022/06/15 11:24:07;;;;;;;4.22;2.30;;;;;;;;;;5055783;28;20231;-91
2022/06/15 11:26:55;;;;;;;2.78;2.03;;;;;;;;;;5051707;28;20231;-91
2022/06/15 11:29:37;;;;;;;3.65;2.08;;;;;;;;;;5054806;28;20287;-91
2022/06/15 11:32:07;;;;;;;2.88;1.80;;;;;;;;;;5056151;28;20248;-91
2022/06/15 11:34:37;;;;;;;3.00;2.33;;;;;;;;;;5056312;28;20212;-91
2022/06/15 11:37:06;;;;;;;2.75;1.95;;;;;;;;;;5056229;28;20221;-91
2022/06/15 11:39:37;;;;;;;2.03;1.92;;;;;;;;;;5056139;28;20226;-92
2022/06/15 11:42:10;;;;;;;3.95;2.15;;;;;;;;;;5056251;28;20697;-91
2022/06/15 11:44:38;;;;;;;3.13;2.35;;;;;;;;;;5056216;28;20212;-91
2022/06/15 11:47:12;;;;;;;4.72;2.10;;;;;;;;;;5055536;28;20199;-91
2022/06/15 11:49:45;;;;;;;2.30;1.63;;;;;;;;;;5056134;28;20196;-91
2022/06/15 11:52:28;;;;;;;4.35;2.38;;;;;;;;;;5056124;28;20228;-92
2022/06/15 11:55:14;;;;;;;1.95;1.50;;;;;;;;;;5055492;28;20208;-92
2022/06/15 11:57:45;;;;;;;1.85;1.75;;;;;;;;;;5055318;28;20625;-91
2022/06/15 12:00:17;;;;;;;3.17;2.00;;;;;;;;;;5054864;28;20202;-92
2022/06/15 12:02:55;;;;;;;3.95;1.90;;;;;;;;;;5055114;28;20236;-93
2022/06/15 12:05:26;;;;;;;2.85;1.85;;;;;;;;;;5055205;28;20214;-92
2022/06/15 12:07:59;;;;;;;1.42;1.38;;;;;;;;;;5054956;28;20211;-91
2022/06/15 12:10:34;;;;;;;3.17;1.50;;;;;;;;;;5055015;28;20204;-91
2022/06/15 12:13:06;;;;;;;3.55;1.70;;;;;;;;;;5034784;28;20233;-91
2022/06/15 12:15:36;;;;;;;3.60;1.83;;;;;;;;;;5035422;28;20212;-91
2022/06/15 12:18:15;;;;;;;3.45;2.13;;;;;;;;;;5035075;28;20221;-92
2022/06/15 12:20:45;;;;;;;5.05;2.30;;;;;;;;;;5035188;28;20205;-91
2022/06/15 12:23:21;;;;;;;2.50;2.30;;;;;;;;;;5035027;28;20232;-91
2022/06/15 12:25:52;;;;;;;3.33;2.08;;;;;;;;;;5034730;28;20602;-90
2022/06/15 12:28:25;;;;;;;2.03;1.75;;;;;;;;;;5034477;28;20556;-92
2022/06/15 12:30:56;;;;;;;3.65;1.90;;;;;;;;;;5034701;28;20222;-91
2022/06/15 12:33:28;;;;;;;3.35;2.25;;;;;;;;;;5034593;28;20235;-91
2022/06/15 12:35:57;;;;;;;2.30;1.70;;;;;;;;;;5054332;28;20228;-91
2022/06/15 12:38:27;;;;;;;3.83;1.92;;;;;;;;;;5054297;28;20224;-91
2022/06/15 12:40:59;;;;;;;1.60;1.50;;;;;;;;;;5054090;28;20236;-91
2022/06/15 12:43:33;;;;;;;1.98;1.88;;;;;;;;;;5054780;28;20237;-91
2022/06/15 12:46:06;;;;;;;1.90;1.80;;;;;;;;;;5054554;28;20200;-91
2022/06/15 12:48:40;;;;;;;3.10;1.52;;;;;;;;;;5054310;28;20292;-92
2022/06/15 12:51:10;;;;;;;1.65;1.55;;;;;;;;;;5054071;28;20209;-91
2022/06/15 12:53:41;;;;;;;2.85;1.25;;;;;;;;;;5053505;28;20242;-91
2022/06/15 12:56:16;;;;;;;1.40;1.30;;;;;;;;;;5054349;28;20212;-91
2022/06/15 12:58:51;;;;;;;2.05;1.40;;;;;;;;;;5053843;28;20220;-91
2022/06/15 13:01:20;;;;;;;3.78;1.30;;;;;;;;;;5054056;28;20681;-91
2022/06/15 13:03:54;;;;;;;3.00;1.48;;;;;;;;;;5054087;28;20241;-91
2022/06/15 13:06:23;;;;;;;1.30;1.20;;;;;;;;;;5053955;28;20198;-92
2022/06/15 13:08:59;;;;;;;1.20;1.17;;;;;;;;;;5054097;28;20288;-92
2022/06/15 13:11:27;;;;;;;1.63;1.30;;;;;;;;;;5053377;28;20647;-92
2022/06/15 13:13:56;;;;;;;1.20;1.10;;;;;;;;;;5053562;28;20232;-92
2022/06/15 13:16:32;;;;;;;2.85;1.48;;;;;;;;;;5053613;28;20209;-91
2022/06/15 13:19:00;;;;;;;1.40;1.30;;;;;;;;;;5053913;28;20259;-91
2022/06/15 13:21:28;;;;;;;1.50;0.98;;;;;;;;;;5053842;28;20239;-92
2022/06/15 13:24:03;;;;;;;2.25;1.58;;;;;;;;;;5053760;28;20225;-91
2022/06/15 13:26:45;;;;;;;1.65;1.40;;;;;;;;;;5053577;28;20224;-92
2022/06/15 13:29:22;;;;;;;1.63;1.42;;;;;;;;;;5053159;28;20200;-91
2022/06/15 13:31:50;;;;;;;1.60;1.50;;;;;;;;;;5053635;28;20209;-92
2022/06/15 13:34:18;;;;;;;3.95;1.65;;;;;;;;;;5053842;28;20223;-91
2022/06/15 13:37:00;;;;;;;1.35;1.25;;;;;;;;;;5053050;28;20748;-91
2022/06/15 13:39:47;;;;;;;2.17;1.52;;;;;;;;;;5052723;28;20309;-91
2022/06/15 13:42:34;;;;;;;1.60;1.50;;;;;;;;;;5053698;28;20259;-91
2022/06/15 13:45:06;;;;;;;2.55;1.20;;;;;;;;;;5053703;28;20214;-92
2022/06/15 13:47:39;;;;;;;3.20;1.33;;;;;;;;;;5053667;28;20284;-92
2022/06/15 13:50:08;;;;;;;1.77;1.40;;;;;;;;;;5053223;28;20224;-92
2022/06/15 13:52:35;;;;;;;2.53;1.30;;;;;;;;;;5053646;28;20225;-91
2022/06/15 13:55:21;;;;;;;3.30;1.48;;;;;;;;;;5053232;28;20213;-91
2022/06/15 13:58:06;;;;;;;1.85;1.60;;;;;;;;;;5053081;28;20213;-92
2022/06/15 14:00:42;;;;;;;2.80;1.65;;;;;;;;;;5022479;28;20236;-91
2022/06/15 14:03:16;;;;;;;4.47;1.40;;;;;;;;;;5218847;22;20235;-42
2022/06/15 14:05:52;;;;;;;2.03;1.35;;;;;;;;;;5073159;28;20208;-45
2022/06/15 14:08:40;;;;;;;2.97;1.70;;;;;;;;;;5072513;28;20215;-43
2022/06/15 14:11:12;;;;;;;1.50;1.40;;;;;;;;;;5048475;28;20212;-41
2022/06/15 14:14:05;;;;;;;2.17;1.60;;;;;;;;;;5048182;28;20205;-42
2022/06/15 14:22:48;;;;;;;1.80;1.70;;;;;;;;;;5118204;22;20390;-32
2022/06/15 14:25:17;;;;;;;2.65;1.83;;;;;;;;;;5054066;28;20216;-34
2022/06/15 14:27:44;;;;;;;2.65;1.80;;;;;;;;;;5053901;28;20232;-37
2022/06/15 14:30:19;;;;;;;3.20;2.28;;;;;;;;;;5047421;28;20201;-35
2022/06/15 14:32:47;;;;;;;1.83;1.73;;;;;;;;;;5040075;28;20207;-34
2022/06/15 14:35:19;;;;;;;1.80;1.40;;;;;;;;;;5052023;28;20206;-33
2022/06/15 14:37:55;;;;;;;1.77;1.55;;;;;;;;;;5051397;28;20707;-34
2022/06/15 14:40:27;;;;;;;2.95;1.75;;;;;;;;;;5050835;28;20229;-36
2022/06/15 14:42:57;;;;;;;1.80;1.70;;;;;;;;;;5051705;28;20202;-34
2022/06/15 14:45:27;;;;;;;1.95;1.67;;;;;;;;;;5050329;28;20212;-34
2022/06/15 14:47:55;;;;;;;1.88;1.50;;;;;;;;;;5040489;28;20221;-35
2022/06/15 14:50:22;;;;;;;1.88;1.77;;;;;;;;;;5048701;28;20213;-32
2022/06/15 14:52:50;;;;;;;3.95;1.80;;;;;;;;;;5046087;28;20288;-35
2022/06/15 14:55:20;;;;;;;2.08;1.80;;;;;;;;;;5051934;28;20206;-35
2022/06/15 14:57:47;;;;;;;2.40;1.70;;;;;;;;;;5045108;28;20229;-35
2022/06/15 15:00:20;;;;;;;1.92;1.70;;;;;;;;;;5047018;28;20300;-37
2022/06/15 15:02:49;;;;;;;1.98;1.88;;;;;;;;;;5045758;28;20256;-34
2022/06/15 15:05:17;;;;;;;1.98;1.77;;;;;;;;;;5048889;28;20205;-33
2022/06/15 15:10:34;;;;;;;2.83;1.50;;;;;;;;;;5047499;28;20220;-37
2022/06/15 15:13:15;;;;;;;4.15;1.80;;;;;;;;;;5048319;28;20198;-37
2022/06/15 15:15:43;;;;;;;7.55;2.17;;;;;;;;;;5048390;28;20212;-38
2022/06/15 15:18:13;;;;;;;2.05;1.85;;;;;;;;;;5040590;28;20417;-34
2022/06/15 15:20:41;;;;;;;2.15;1.95;;;;;;;;;;5053322;28;20698;-35
2022/06/15 15:23:08;;;;;;;4.10;1.60;;;;;;;;;;5045852;28;20208;-33
2022/06/15 15:25:38;;;;;;;2.63;2.08;;;;;;;;;;5052843;28;20289;-38